Tiempo atmosférico en la estación meteorológica de Madrid, Madrid (667 m.)



Fecha
DESCASC
Temp. máxima en grados centígrados (hora)
DESCASC
Temp. mínima en grados centígrados (hora)
DESCASC
Temp. media en grados centígrados
DESCASC
Racha de viento máxima en m/sg (hora)
DESCASC
Velocidad máxima media en intervalos de 10 minutos(hora)
DESCASC
Precipitaciones diarias en mm
DESCASC
Precipitaciones de 00:00 a 06:00 en mm
DESCASC
Precipitaciones de 06:00 a 12:00 en mm
DESCASC
Precipitaciones de 12:00 a 18:00 en mm
DESCASC
Precipitaciones de 18:00 a 24:00 en mm
DESCASC

Gráficas

Temp. máximas Temp. mínimas Temp. medias Precipitaciones Rachas de viento máximas Velocidades máximas media en intervalos de 10 minutos

Datos horarios

Fecha y hora oficial Temperatura (ºC) Velocidad del viento (km/h) Dirección del viento Racha (km/h) Dirección de racha Precipitación (mm) Presión (hPa) Tendencia (hPa) Humedad (%)
2019-05-26 23:00:00 21.7 13 Nordeste 27 Norte 0 939.1 1.1 39
2019-05-26 22:00:00 22.8 7 Norte 27 Nordeste 0 938.5 0.3 39
2019-05-26 21:00:00 24 13 Norte 31 Norte 0 938.3 -0.2 39
2019-05-26 20:00:00 25 9 Nordeste 26 Nordeste 0 938 -0.8 37
2019-05-26 19:00:00 25.7 13 Nordeste 25 Nordeste 0 938.2 -1.1 36
2019-05-26 18:00:00 26.5 10 Nordeste 31 Nordeste 0 938.5 -1.5 35
2019-05-26 17:00:00 26.7 12 Nordeste 28 Nordeste 0 938.8 -0.9 34
2019-05-26 16:00:00 26.2 5 Nordeste 21 Este 0 939.3 -1.7 36
2019-05-26 15:00:00 24.7 3 Nordeste 18 Nordeste 0 940 -1.3 37
2019-05-26 14:00:00 22.7 3 Nordeste 13 Sudoeste 0 939.7 -1.9 40
2019-05-26 13:00:00 21.6 3 Nordeste 16 Nordeste 0 941 -0.8 42
2019-05-26 12:00:00 19.6 4 Este 17 Este 0 941.3 -0.5 48
2019-05-26 11:00:00 16.1 3 Nordeste 13 Norte 0 941.6 0 55
2019-05-26 10:00:00 14.5 5 Este 18 Este 0 941.8 0.4 59
2019-05-26 09:00:00 12.3 5 Nordeste 17 Este 0 941.8 0.6 66
2019-05-26 08:00:00 11.2 4 Este 19 Este 0 941.6 0.2 68
2019-05-26 07:00:00 11.1 3 Este 14 Este 0 941.4 -0.1 68
2019-05-26 06:00:00 11.5 5 Este 23 Nordeste 0 941.2 -0.5 67
2019-05-26 05:00:00 11.9 10 Nordeste 22 Nordeste 0 941.4 -0.3 66
2019-05-26 04:00:00 12.2 9 Nordeste 37 Nordeste 0 941.5 -0.3 64
2019-05-26 03:00:00 13.1 15 Nordeste 33 Nordeste 0 941.7 0 61
2019-05-26 02:00:00 13.9 11 Este 32 Nordeste 0 941.7 0.3 59
2019-05-26 01:00:00 15.1 19 Nordeste 41 Nordeste 0 941.8 1.1 54
2019-05-26 00:00:00 17.2 16 Nordeste 39 Nordeste 0 941.7 2.8 49
2019-05-25 23:00:00 18.9 17 Nordeste 37 Nordeste 0 941.4 1.6 45
2019-05-25 22:00:00 20.3 13 Nordeste 37 Nordeste 0 940.7 1.2 42
2019-05-25 21:00:00 21.6 13 Nordeste 29 Nordeste 0 938.9 -0.9 40
2019-05-25 20:00:00 22.6 13 Este 27 Norte 0 939.8 -0.1 40
2019-05-25 19:00:00 23.8 8 Nordeste 24 Nordeste 0 939.5 -0.7 37
2019-05-25 18:00:00 23.8 10 Nordeste 27 Nordeste 0 939.8 -0.9 37
2019-05-25 17:00:00 24.3 10 Norte 28 Nordeste 0 939.9 -1.2 37
2019-05-25 16:00:00 23.9 9 Nordeste 33 Nordeste 0 940.2 -1.2 38
2019-05-25 15:00:00 23.3 14 Nordeste 30 Nordeste 0 940.7 -0.9 40
2019-05-25 14:00:00 22.3 10 Este 35 Este 0 941.1 -0.4 43
2019-05-25 13:00:00 21.4 10 Nordeste 27 Nordeste 0 941.4 0.2 45
2019-05-25 12:00:00 19.3 12 Norte 27 Nordeste 0 941.6 0.6 49
2019-05-25 11:00:00 17.5 14 Nordeste 28 Nordeste 0 941.5 0.9 52
2019-05-25 10:00:00 16 8 Nordeste 24 Este 0 941.2 1 57
2019-05-25 09:00:00 13.4 12 Nordeste 21 Nordeste 0 941 1.4 63
2019-05-25 08:00:00 11.9 7 Nordeste 16 Nordeste 0 940.6 1 66
2019-05-25 07:00:00 12 8 Nordeste 26 Este 0 940.2 0.5 64
2019-05-25 06:00:00 12.1 9 Nordeste 24 Este 0 939.6 -0.4 63
2019-05-25 05:00:00 12.3 11 Nordeste 25 Nordeste 0 939.6 -0.4 63
2019-05-25 04:00:00 12.2 6 Nordeste 24 Nordeste 0 939.7 -0.5 64
2019-05-25 03:00:00 12.8 5 Nordeste 21 Nordeste 0 940 -0.1 62
2019-05-25 02:00:00 13.5 10 Nordeste 27 Nordeste 0 940 0.6 60
2019-05-25 01:00:00 14 13 Nordeste 36 Nordeste 0 940.2 1.8 58
2019-05-25 00:00:00 15.4 14 Nordeste 34 Nordeste 0 940.1 2.6 49
2019-05-24 23:00:00 16.6 17 Nordeste 34 Nordeste 0 939.4 2.4 46
2019-05-24 22:00:00 17.9 17 Nordeste 42 Norte 0 938.4 1.8 44
2019-05-24 21:00:00 19.9 14 Nordeste 36 Nordeste 0 937.5 1.1 43
2019-05-24 20:00:00 21.1 16 Este 36 Norte 0 937 0.6 43
2019-05-24 19:00:00 22.8 15 Nordeste 38 Nordeste 0 936.6 -0.2 37
2019-05-24 18:00:00 23.5 16 Nordeste 34 Nordeste 0 936.4 -0.7 35
2019-05-24 17:00:00 24.5 14 Nordeste 35 Norte 0 936.4 -0.5 38
2019-05-24 16:00:00 24.4 15 Nordeste 44 Nordeste 0 936.8 -0.2 40
2019-05-24 15:00:00 23.9 15 Nordeste 39 Nordeste 0 937.1 -0.1 43
2019-05-24 14:00:00 23.4 14 Este 39 Nordeste 0 936.9 -0.3 45
2019-05-24 13:00:00 23 14 Nordeste 40 Nordeste 0 937 -0.2 47
2019-05-24 12:00:00 21.6 15 Nordeste 36 Nordeste 0 937.2 0.5 50
2019-05-24 11:00:00 19.8 14 Nordeste 36 Nordeste 0 937.2 1 55
2019-05-24 10:00:00 18 20 Nordeste 48 Nordeste 0 937.2 1.2 63
2019-05-24 09:00:00 16.4 16 Nordeste 32 Nordeste 0 936.7 0.8 67
2019-05-24 08:00:00 16.2 11 Nordeste 35 Nordeste 0 936.2 0.2 68
2019-05-24 07:00:00 16.7 10 Nordeste 22 Nordeste 0 936 -0.3 65
2019-05-24 06:00:00 17.1 3 Nordeste 13 Nordeste 0 935.9 0.4 62
2019-05-24 05:00:00 17.3 2 Este 8 Sudeste 0 936 -0.6 60
2019-05-24 04:00:00 18 0 Calma 10 Este 0 936.3 -0.7 53
2019-05-24 03:00:00 18.6 4 Noroeste 13 Oeste 0 935.5 -1.4 48
2019-05-24 02:00:00 19.7 6 Noroeste 21 Noroeste 0 936.6 -0.7 43
2019-05-24 01:00:00 20.5 8 Noroeste 21 Noroeste 0 937 0.3 40
2019-05-24 00:00:00 21.5 9 Noroeste 23 Noroeste 0 936.9 0.5 38
2019-05-23 23:00:00 22.3 9 Oeste 23 Oeste 0 937.3 0.9 36
2019-05-23 22:00:00 23.6 12 Oeste 30 Oeste 0 936.7 -0.1 34
2019-05-23 21:00:00 25.1 9 Oeste 27 Oeste 0 936.4 -0.8 34
2019-05-23 20:00:00 26.2 16 Oeste 31 Oeste 0 936.4 -1.3 33
2019-05-23 19:00:00 27.2 13 Oeste 30 Sudoeste 0 936.8 -1.6 33
2019-05-23 18:00:00 28.3 12 Sudoeste 31 Sudoeste 0 937.2 -1.7 32
2019-05-23 17:00:00 27.8 13 Sudoeste 39 Oeste 0 937.7 -1.9 32
2019-05-23 16:00:00 27.7 16 Sudoeste 37 Sudoeste 0 938.4 -1.9 36
2019-05-23 15:00:00 27.9 8 Sudoeste 31 Sudoeste 0 938.9 -1.1 38
2019-05-23 14:00:00 26.8 7 Sudoeste 28 Sudoeste 0 939.6 -0.5 40
2019-05-23 13:00:00 24.4 6 Sur 13 Sudoeste 0 940.3 0.2 43
2019-05-23 12:00:00 22.4 3 Sudeste 8 Sudeste 0 940 0.3 46
2019-05-23 11:00:00 21 0 Calma 7 Noroeste 0 940.1 0.8 49
2019-05-23 10:00:00 18.9 0 Calma 8 Norte 0 940.1 1 52
2019-05-23 09:00:00 16.7 4 Este 9 Este 0 939.7 1 55
2019-05-23 08:00:00 15.3 0 Calma 5 Sur 0 939.3 0.7 59
2019-05-23 07:00:00 15.5 0 Calma 14 Nordeste 0 939.1 0.4 56
2019-05-23 06:00:00 16.3 4 Nordeste 20 Nordeste 0 938.7 0.1 52
2019-05-23 05:00:00 16.3 7 Nordeste 13 Nordeste 0 938.6 -0.2 53
2019-05-23 04:00:00 16.7 0 Calma 11 Nordeste 0 938.7 0 54
2019-05-23 03:00:00 17.2 0 Calma 4 Sudoeste 0 938.6 -0.3 53
2019-05-23 02:00:00 18.2 0 Calma 7 Sudoeste 0 938.8 -0.5 49
2019-05-23 01:00:00 18.8 0 Calma 8 Oeste 0 938.7 0.2 47
2019-05-23 00:00:00 20 3 Oeste 12 Oeste 0 938.9 0.7 44
2019-05-22 23:00:00 21.3 5 Oeste 17 Oeste 0 939.3 1.3 40
2019-05-22 22:00:00 22.6 6 Sudoeste 15 Oeste 0 938.5 0.2 37
2019-05-22 21:00:00 24.6 4 Sudoeste 17 Sudoeste 0 938.2 -0.3 34
2019-05-22 20:00:00 25.8 2 Sudoeste 14 Sudoeste 0 938 -0.8 34
2019-05-22 19:00:00 26.4 7 Sudoeste 17 Sudoeste 0 938.3 -1.1 33
2019-05-22 18:00:00 26.6 7 Sudoeste 22 Sudoeste 0 938.5 -1.1 33
2019-05-22 17:00:00 27.2 7 Sudoeste 19 Sur 0 938.8 -1.3 33
2019-05-22 16:00:00 27.1 4 Sudoeste 19 Sudoeste 0 939.4 -1 33
2019-05-22 15:00:00 27.1 4 Sudeste 17 Sudoeste 0 939.6 -0.7 34
2019-05-22 14:00:00 26.1 6 Sudoeste 17 Sudoeste 0 940.1 -0.1 35
2019-05-22 13:00:00 24.5 4 Sudoeste 12 Este 0 940.4 0.3 40
2019-05-22 12:00:00 22.8 3 Sudeste 14 Sudeste 0 940.3 0.4 47
2019-05-22 11:00:00 19.8 0 Calma 10 Este 0 940.2 0.9 51
2019-05-22 10:00:00 17.2 6 Este 14 Este 0 940.1 1.1 55
2019-05-22 09:00:00 14.6 6 Nordeste 22 Nordeste 0 939.9 0.8 57
2019-05-22 08:00:00 13.3 12 Nordeste 19 Nordeste 0 939.3 0.3 57
2019-05-22 07:00:00 13.3 10 Nordeste 19 Nordeste 0 939 -0.2 56
2019-05-22 06:00:00 13.8 8 Nordeste 19 Nordeste 0 939.1 0.3 54
2019-05-22 05:00:00 14.4 8 Nordeste 18 Nordeste 0 939 0.1 52
2019-05-22 04:00:00 15 11 Nordeste 24 Nordeste 0 939.2 0.9 50
2019-05-22 03:00:00 15.7 10 Nordeste 25 Nordeste 0 938.8 0.5 48
2019-05-22 02:00:00 16.7 12 Nordeste 31 Norte 0 938.9 1.3 46
2019-05-22 01:00:00 18.1 5 Nordeste 10 Nordeste 0 938.3 0.6 44
2019-05-22 00:00:00 19.1 3 Este 13 Este 0 938.3 1.2 41
2019-05-21 23:00:00 20.3 5 Este 19 Nordeste 0 937.6 1.2 39
2019-05-21 22:00:00 21.2 9 Nordeste 20 Nordeste 0 937.7 1.5 36
2019-05-21 21:00:00 21.9 11 Nordeste 22 Nordeste 0 937.1 0.8 35
2019-05-21 20:00:00 22.5 9 Nordeste 23 Nordeste 0 936.4 -0.1 35
2019-05-21 19:00:00 23.6 6 Norte 14 Norte 0 936.2 -0.6 34
2019-05-21 18:00:00 24 0 Calma 16 Sudeste 0 936.3 -0.8 33
2019-05-21 17:00:00 25 4 Oeste 14 Noroeste 0 936.5 -0.7 33
2019-05-21 16:00:00 25.5 2 Sudeste 15 Este 0 936.8 -0.8 34
2019-05-21 15:00:00 23.8 6 Noroeste 16 Oeste 0 937.1 -0.1 34
2019-05-21 14:00:00 23.9 10 Nordeste 17 Este 0 937.2 0 35
2019-05-21 13:00:00 22.3 4 Nordeste 20 Este 0 937.6 0.8 40
2019-05-21 12:00:00 20.3 9 Nordeste 23 Nordeste 0 937.2 0.5 44
2019-05-21 11:00:00 18.3 9 Nordeste 22 Nordeste 0 937.2 0.9 49
2019-05-21 10:00:00 15 13 Nordeste 23 Nordeste 0 936.8 1 54
2019-05-21 09:00:00 13.5 12 Nordeste 25 Nordeste 0 936.7 1.1 56
2019-05-21 08:00:00 13.4 12 Nordeste 23 Nordeste 0 936.3 0.6 56
2019-05-21 07:00:00 13.3 12 Nordeste 23 Nordeste 0 935.8 0.6 56
2019-05-21 06:00:00 13.6 8 Norte 17 Norte 0 935.6 0.5 55
2019-05-21 05:00:00 14 5 Nordeste 22 Nordeste 0 935.7 0.5 53
2019-05-21 04:00:00 14.5 10 Nordeste 26 Nordeste 0 935.2 -0.1 50
2019-05-21 03:00:00 15.3 10 Nordeste 22 Nordeste 0 935.1 -0.1 46
2019-05-21 02:00:00 15 8 Nordeste 15 Nordeste 0 935.2 0.1 47
2019-05-21 01:00:00 15.6 3 Nordeste 12 Nordeste 0 935.3 0.5 45
2019-05-21 00:00:00 16.3 5 Noroeste 13 Oeste 0 935.2 1.1 43
2019-05-20 23:00:00 16.4 4 Oeste 15 Oeste 0 935.1 1 39
2019-05-20 22:00:00 18.6 5 Oeste 14 Oeste 0 934.8 0.7 37
2019-05-20 21:00:00 19.4 4 Oeste 12 Oeste 0 934.1 -0.2 36
2019-05-20 20:00:00 20.4 6 Sudoeste 16 Sudoeste 0 934.1 -0.4 34
2019-05-20 19:00:00 20.6 9 Oeste 19 Oeste 0 934.1 -0.7 34
2019-05-20 18:00:00 20.6 0 Calma 17 Sur 0 934.3 -0.9 34
2019-05-20 17:00:00 20.9 4 Oeste 14 Oeste 0 934.5 -1.4 34
2019-05-20 16:00:00 20.4 2 Oeste 21 Oeste 0 934.8 -0.3 36
2019-05-20 15:00:00 20.8 5 Sur 17 Oeste 0 935.2 -0.6 37
2019-05-20 14:00:00 20.4 4 Sudoeste 17 Sudoeste 0 935.9 0.1 39
2019-05-20 13:00:00 19.9 4 Sudeste 17 Sudeste 0 935.1 -0.8 42
2019-05-20 12:00:00 17.3 2 Sudeste 12 Sudeste 0 935.8 0.6 49
2019-05-20 11:00:00 13.9 5 Norte 13 Nordeste 0 935.8 0.8 56
2019-05-20 10:00:00 12 4 Nordeste 25 Nordeste 0 935.9 1.2 62
2019-05-20 09:00:00 10.3 11 Nordeste 26 Nordeste 0 935.2 0.7 65
2019-05-20 08:00:00 9.7 11 Nordeste 27 Nordeste 0 935 0.2 65
2019-05-20 07:00:00 9.4 10 Nordeste 24 Nordeste 0 934.7 0.1 65
2019-05-20 06:00:00 9.8 10 Nordeste 24 Nordeste 0 934.5 -0.4 65
2019-05-20 05:00:00 10.2 9 Nordeste 23 Nordeste 0 934.8 -0.1 63
2019-05-20 04:00:00 11 12 Nordeste 21 Nordeste 0 934.6 -0.2 59
2019-05-20 03:00:00 11.9 9 Nordeste 20 Nordeste 0 934.9 0 53
2019-05-20 02:00:00 13 9 Nordeste 21 Nordeste 0 934.9 0.5 49
2019-05-20 01:00:00 13.9 6 Nordeste 18 Este 0 934.8 1 46
2019-05-20 00:00:00 14.9 6 Nordeste 24 Nordeste 0 934.9 1.3 43
2019-05-19 23:00:00 16 9 Nordeste 21 Norte 0 934.4 1.4 39
2019-05-19 22:00:00 16.4 8 Norte 21 Norte 0 933.8 1 36
2019-05-19 21:00:00 17.4 6 Noroeste 20 Noroeste 0 933.6 0.4 34
2019-05-19 20:00:00 18.8 10 Noroeste 26 Oeste 0 933 -0.4 33
2019-05-19 19:00:00 19.4 5 Noroeste 23 Noroeste 0 932.8 -1.2 34
2019-05-19 18:00:00 19.2 7 Noroeste 23 Noroeste 0 933.2 0 34
2019-05-19 17:00:00 19.8 5 Sudoeste 23 Oeste 0 933.4 -0.4 35
2019-05-19 16:00:00 19.5 5 Sudoeste 19 Sudoeste 0 934 -0.2 38
2019-05-19 15:00:00 18.9 3 Noroeste 23 Oeste 0 933.2 -1.3 40
2019-05-19 14:00:00 18.9 4 Sudeste 25 Oeste 0 933.8 -0.6 41
2019-05-19 13:00:00 16.1 3 Sudoeste 12 Sudoeste 0 934.2 -0.2 45
2019-05-19 12:00:00 16.9 7 Oeste 16 Oeste 0 934.5 0.4 47
2019-05-19 11:00:00 14.6 4 Sur 16 Sudeste 0 934.4 0.8 51
2019-05-19 10:00:00 13.4 4 Sudeste 13 Nordeste 0 934.4 1 54
2019-05-19 09:00:00 11.5 3 Sudeste 10 Sudeste 0 934.1 0.9 59
2019-05-19 08:00:00 10.5 3 Este 12 Sudeste 0 933.6 0.5 64
2019-05-19 07:00:00 10.2 5 Sudeste 9 Sudeste 0 933.4 0 64
2019-05-19 06:00:00 10.6 3 Este 9 Este 0 933.2 -0.3 62
2019-05-19 05:00:00 10.8 4 Noroeste 16 Noroeste 0 933.1 -0.5 61
2019-05-19 04:00:00 12.1 9 Norte 22 Norte 0 933.4 -0.3 53
2019-05-19 03:00:00 12.4 8 Norte 17 Noroeste 0 933.5 -0.3 50
2019-05-19 02:00:00 13.3 8 Norte 19 Noroeste 0 933.6 -0.2 47
2019-05-19 01:00:00 13.6 5 Noroeste 18 Norte 0 933.7 0.2 46
2019-05-19 00:00:00 14.1 6 Noroeste 17 Noroeste 0 933.8 0.5 44
2019-05-18 23:00:00 14.3 5 Nordeste 17 Noroeste 0 933.8 1 42
2019-05-18 22:00:00 14.9 8 Norte 23 Oeste 0 933.5 1.9 40
2019-05-18 21:00:00 15.3 10 Noroeste 26 Noroeste 0 933.3 1.4 40
2019-05-18 20:00:00 16 10 Noroeste 27 Noroeste 0 932.8 0.3 39
2019-05-18 19:00:00 16.6 14 Noroeste 33 Oeste 0 931.6 -1 39
2019-05-18 18:00:00 17.1 15 Noroeste 29 Noroeste 0 931.9 -0.6 38
2019-05-18 17:00:00 17.4 10 Noroeste 29 Noroeste 0 932.5 -0.1 38
2019-05-18 16:00:00 17.8 7 Noroeste 29 Oeste 0 932.6 -0.5 37
2019-05-18 15:00:00 17.9 3 Norte 21 Noroeste 0 932.5 -0.5 38
2019-05-18 14:00:00 17.2 2 Norte 19 Sudoeste 0 932.6 -0.3 40
2019-05-18 13:00:00 14.6 5 Nordeste 15 Nordeste 0 933.1 0.4 43
2019-05-18 12:00:00 12.9 0 Calma 16 Oeste 0 933 0.7 49
2019-05-18 11:00:00 12.9 3 Sudoeste 13 Oeste 0 932.9 0.8 50
2019-05-18 10:00:00 10.6 4 Oeste 19 Noroeste 0 932.7 0.9 55
2019-05-18 09:00:00 9.3 10 Noroeste 31 Noroeste 0 932.3 0.7 59
2019-05-18 08:00:00 8.4 9 Noroeste 33 Oeste 0 932.1 0.6 59
2019-05-18 07:00:00 8.8 9 Noroeste 26 Oeste 0 931.8 -0.1 59
2019-05-18 06:00:00 9.3 9 Noroeste 28 Noroeste 0 931.6 -0.7 55
2019-05-18 05:00:00 10.1 8 Noroeste 32 Noroeste 0 931.5 -1.1 52
2019-05-18 04:00:00 10.5 10 Noroeste 26 Oeste 0 931.9 -0.7 54
2019-05-18 03:00:00 11.1 8 Noroeste 27 Noroeste 0 932.3 -0.4 57
2019-05-18 02:00:00 11.5 9 Noroeste 34 Noroeste 0 932.6 -0.3 55
2019-05-18 01:00:00 12.3 13 Noroeste 31 Noroeste 0 932.6 0.1 50
2019-05-18 00:00:00 13.3 13 Noroeste 29 Noroeste 0 932.7 0.6 48
2019-05-17 23:00:00 13.8 8 Noroeste 25 Oeste 0 932.9 1.3 49
2019-05-17 22:00:00 14.7 7 Noroeste 21 Norte 0 932.5 1.5 46
2019-05-17 21:00:00 15.4 9 Noroeste 28 Noroeste 0 932.1 0.3 45
2019-05-17 20:00:00 15.8 13 Noroeste 28 Noroeste 0 931.6 -0.5 45
2019-05-17 19:00:00 16 13 Oeste 31 Oeste 0 931 -0.4 44
2019-05-17 18:00:00 16.4 12 Noroeste 29 Noroeste 0 931.8 -1.2 43
2019-05-17 17:00:00 17.5 10 Noroeste 37 Oeste 0 932.1 -0.9 43
2019-05-17 16:00:00 17.8 16 Noroeste 41 Oeste 0 931.4 -1.4 46
2019-05-17 15:00:00 14.6 9 Noroeste 37 Noroeste 0 933 0.4 51
2019-05-17 14:00:00 15.3 16 Noroeste 47 Noroeste 0 933 1.6 49
2019-05-17 13:00:00 15.5 19 Noroeste 43 Oeste 0 932.8 1.4 52
2019-05-17 12:00:00 12.9 18 Noroeste 42 Noroeste 0 932.6 1.7 56
2019-05-17 11:00:00 13.7 21 Noroeste 49 Oeste 0 931.4 1 56
2019-05-17 10:00:00 12.6 15 Noroeste 43 Oeste 0 931.4 1.4 59
2019-05-17 09:00:00 10.5 15 Oeste 37 Oeste 0 930.9 1.1 65
2019-05-17 08:00:00 10.2 17 Oeste 39 Oeste 0 930.4 0.7 65
2019-05-17 07:00:00 10.1 13 Oeste 28 Noroeste 0 930 0.9 65
2019-05-17 06:00:00 10.5 18 Noroeste 44 Oeste 0 929.8 0.6 64
2019-05-17 05:00:00 10.7 17 Noroeste 52 Oeste 0 929.7 0.8 63
2019-05-17 04:00:00 10.8 14 Oeste 40 Noroeste 0 929.1 0.2 65
2019-05-17 03:00:00 11 23 Noroeste 51 Noroeste 0 929.2 0.1 66
2019-05-17 02:00:00 11.5 15 Noroeste 43 Oeste 0 928.9 0.9 66
2019-05-17 01:00:00 11.6 14 Noroeste 45 Noroeste 0.1 928.9 2.1 71
2019-05-17 00:00:00 12.4 25 Noroeste 60 Noroeste 0 929.1 2.6 59
2019-05-16 23:00:00 18.3 15 Noroeste 46 Noroeste 0 928 1.9 45
2019-05-16 22:00:00 19.8 13 Noroeste 37 Noroeste 0 926.8 0.3 46
2019-05-16 21:00:00 21.8 16 Noroeste 36 Norte 0 926.5 -0.4 42
2019-05-16 20:00:00 23.1 15 Noroeste 42 Oeste 0 926.1 -1.4 40
2019-05-16 19:00:00 27.3 21 Oeste 58 Oeste 0 926.5 -2.4 32
2019-05-16 18:00:00 28.4 18 Oeste 49 Sudoeste 0 926.9 -3 30
2019-05-16 17:00:00 29.1 15 Sudoeste 38 Sudoeste 0 927.5 -3.5 32
2019-05-16 16:00:00 29.7 14 Oeste 32 Sudoeste 0 928.9 -3 34
2019-05-16 15:00:00 28.6 9 Sudoeste 26 Sudoeste 0 929.9 -2.5 38
2019-05-16 14:00:00 26.2 6 Sur 20 Sur 0 931 -1.9 42
2019-05-16 13:00:00 24.3 4 Sur 15 Sudeste 0 931.9 -0.6 47
2019-05-16 12:00:00 22 7 Sur 17 Sudeste 0 932.4 -0.8 51
2019-05-16 11:00:00 19.8 5 Sudeste 14 Sudeste 0 932.9 -0.7 57
2019-05-16 10:00:00 17.1 3 Sudeste 13 Sur 0 932.5 -1 63
2019-05-16 09:00:00 15.8 6 Sudeste 14 Sudeste 0 933.2 0.5 66
2019-05-16 08:00:00 15.3 2 Sudoeste 11 Sur 0 933.6 0.6 59
2019-05-16 07:00:00 15.6 2 Este 12 Este 0 933.5 -0.3 53
2019-05-16 06:00:00 16.6 4 Este 17 Nordeste 0 932.7 -0.8 41
2019-05-16 05:00:00 17.6 6 Nordeste 13 Nordeste 0 933 -0.7 39
2019-05-16 04:00:00 18.1 2 Este 9 Este 0 933.8 -0.3 35
2019-05-16 03:00:00 19.4 2 Nordeste 23 Nordeste 0 933.5 -0.9 30
2019-05-16 02:00:00 21.8 9 Nordeste 30 Este 0 933.7 -0.7 27
2019-05-16 01:00:00 22.8 10 Nordeste 21 Nordeste 0 934.1 0.2 26
2019-05-16 00:00:00 24.1 11 Nordeste 27 Nordeste 0 934.4 0.9 26
2019-05-15 23:00:00 25 9 Nordeste 22 Nordeste 0 934.4 1.1 25
2019-05-15 22:00:00 26.2 8 Nordeste 22 Nordeste 0 933.9 0.6 24
2019-05-15 21:00:00 27.6 7 Nordeste 28 Nordeste 0 933.5 0.2 24
2019-05-15 20:00:00 29.1 9 Nordeste 31 Nordeste 0 933.3 -0.1 23
2019-05-15 19:00:00 30.4 7 Nordeste 28 Oeste 0 933.3 -0.7 23
2019-05-15 18:00:00 30.4 11 Oeste 27 Oeste 0 933.3 -1 23
2019-05-15 17:00:00 32.1 9 Norte 21 Norte 0 933.4 -1.5 23
2019-05-15 16:00:00 32.5 4 Sudoeste 23 Sudeste 0 934 -1.4 23
2019-05-15 15:00:00 32.9 4 Sur 15 Sudoeste 0 934.3 -1.2 24
2019-05-15 14:00:00 30.8 5 Sudeste 14 Sur 0 934.9 -0.6 25
2019-05-15 13:00:00 29.3 0 Calma 12 Sur 0 935.4 -0.2 31
2019-05-15 12:00:00 25.9 2 Sudoeste 9 Sur 0 935.5 0 34
2019-05-15 11:00:00 23.1 3 Sur 9 Sudeste 0 935.5 0.1 38
2019-05-15 10:00:00 20.2 2 Sudeste 9 Sur 0 935.6 0.6 46
2019-05-15 09:00:00 15.9 0 Calma 4 Sudeste 0 935.5 0.4 56
2019-05-15 08:00:00 14.1 0 Calma 5 Este 0 935.4 0.4 53
2019-05-15 07:00:00 14.2 0 Calma 6 Sudeste 0 935 -0.2 49
2019-05-15 06:00:00 15.3 0 Calma 8 Este 0 935.1 -0.3 47
2019-05-15 05:00:00 16.3 2 Este 5 Este 0 935 -0.2 46
2019-05-15 04:00:00 16.2 4 Norte 6 Norte 0 935.2 -0.8 46
2019-05-15 03:00:00 17 5 Norte 12 Nordeste 0 935.4 -1 46
2019-05-15 02:00:00 18.2 2 Este 11 Norte 0 935.2 -1.6 44
2019-05-15 01:00:00 19.7 4 Norte 13 Oeste 0 936 -0.6 43
2019-05-15 00:00:00 20.4 6 Oeste 14 Oeste 0 936.4 0 39
2019-05-14 23:00:00 21.7 6 Oeste 14 Oeste 0 936.8 0.5 36
2019-05-14 22:00:00 22.9 5 Oeste 11 Sudoeste 0 936.6 -0.3 34
2019-05-14 21:00:00 24.8 4 Oeste 13 Sudoeste 0 936.4 -0.8 33
2019-05-14 20:00:00 26.9 2 Sudoeste 15 Oeste 0 936.3 -1.4 30
2019-05-14 19:00:00 27.8 3 Oeste 15 Oeste 0 936.9 -1.6 29
2019-05-14 18:00:00 27.9 7 Oeste 19 Noroeste 0 937.2 -2 29
2019-05-14 17:00:00 28 4 Oeste 14 Sur 0 937.7 -2.1 29
2019-05-14 16:00:00 26.6 2 Sudoeste 17 Sur 0 938.5 -2.3 29
2019-05-14 15:00:00 26.9 4 Sudeste 17 Sur 0 939.2 -1.6 30
2019-05-14 14:00:00 25.1 5 Sudeste 16 Este 0 939.8 -1.2 32
2019-05-14 13:00:00 24 3 Sudeste 16 Sudeste 0 940.8 -0.3 32
2019-05-14 12:00:00 21.7 7 Este 18 Este 0 940.8 -0.4 33
2019-05-14 11:00:00 18.8 7 Este 17 Este 0 941 -0.1 35
2019-05-14 10:00:00 17.2 6 Este 15 Este 0 941.1 0.2 37
2019-05-14 09:00:00 14.3 9 Nordeste 19 Nordeste 0 941.2 0.5 40
2019-05-14 08:00:00 13.2 12 Nordeste 19 Nordeste 0 941.1 0.2 39
2019-05-14 07:00:00 13.2 5 Nordeste 14 Nordeste 0 940.9 -0.2 40
2019-05-14 06:00:00 14 5 Nordeste 15 Nordeste 0 940.7 -0.6 36
2019-05-14 05:00:00 15.1 6 Nordeste 14 Este 0 940.9 -0.6 34
2019-05-14 04:00:00 16 8 Este 20 Sudeste 0 941.1 0.1 34
2019-05-14 03:00:00 16.8 8 Sudeste 21 Sudeste 0 941.3 1.1 34
2019-05-14 02:00:00 18.1 8 Este 31 Este 0 941.5 1.4 31
2019-05-14 01:00:00 19.5 12 Este 26 Este 0 941 1.6 27
2019-05-14 00:00:00 21.3 12 Nordeste 24 Nordeste 0 940.2 1.3 26
2019-05-13 23:00:00 23 9 Este 22 Este 0 940.1 1.5 26
2019-05-13 22:00:00 25.2 9 Este 25 Este 0 939.4 0.7 24
2019-05-13 21:00:00 27.1 9 Este 22 Este 0 938.9 0 23
2019-05-13 20:00:00 28.2 8 Este 18 Este 0 938.6 -0.9 22
2019-05-13 19:00:00 28.9 6 Este 17 Nordeste 0 938.7 -1.3 21
2019-05-13 18:00:00 29.4 8 Este 26 Nordeste 0 938.9 -1.8 21
2019-05-13 17:00:00 29.6 10 Nordeste 23 Nordeste 0 939.5 -1.7 21
2019-05-13 16:00:00 29.5 5 Nordeste 22 Este 0 940 -2.2 21
2019-05-13 15:00:00 28.7 4 Nordeste 17 Nordeste 0 940.7 -1.6 23
2019-05-13 14:00:00 26.4 5 Sudeste 14 Este 0 941.2 -1.3 24
2019-05-13 13:00:00 24.5 4 Sudeste 13 Sur 0 942.2 -0.4 24
2019-05-13 12:00:00 22.6 3 Oeste 12 Sur 0 942.3 -0.5 26
2019-05-13 11:00:00 19.8 3 Este 14 Este 0 942.5 -0.2 27
2019-05-13 10:00:00 17 4 Nordeste 17 Este 0 942.6 0 29
2019-05-13 09:00:00 14.6 5 Nordeste 21 Este 0 942.8 0.2 31
2019-05-13 08:00:00 13.5 7 Nordeste 25 Nordeste 0 942.7 -0.1 32
2019-05-13 07:00:00 13.3 13 Nordeste 26 Nordeste 0 942.6 -0.7 33
2019-05-13 06:00:00 13.4 13 Nordeste 29 Nordeste 0 942.6 -0.8 34
2019-05-13 05:00:00 14 11 Nordeste 32 Nordeste 0 942.8 -1.1 33
2019-05-13 04:00:00 14.6 14 Nordeste 38 Nordeste 0 943.3 -0.4 33
2019-05-13 03:00:00 16 16 Nordeste 28 Nordeste 0 943.4 -0.6 32
2019-05-13 02:00:00 17 8 Nordeste 23 Este 0 943.9 0.1 30
2019-05-13 01:00:00 18.6 9 Nordeste 24 Nordeste 0 943.7 0.2 27
2019-05-13 00:00:00 19.9 8 Nordeste 24 Nordeste 0 944 1.2 27
2019-05-12 23:00:00 21.6 13 Nordeste 23 Nordeste 0 943.8 0.1 25
2019-05-12 22:00:00 21.4 3 Nordeste 15 Este 0 943.5 -0.6 25
2019-05-12 21:00:00 23.7 10 Este 16 Este 0 942.8 -1.6 24
2019-05-12 20:00:00 25.5 4 Este 13 Este 0 943.7 -1.3 23
2019-05-12 19:00:00 26 3 Este 17 Norte 0 944.1 -1 22
2019-05-12 18:00:00 26.2 6 Este 21 Este 0 944.4 -1.4 21
2019-05-12 17:00:00 26.6 5 Nordeste 17 Nordeste 0 945 -1.4 21
2019-05-12 16:00:00 26.3 2 Nordeste 21 Norte 0 945.1 -2 21
2019-05-12 15:00:00 24.6 6 Nordeste 21 Este 0 945.8 -1.8 22
2019-05-12 14:00:00 22.5 9 Nordeste 22 Este 0 946.4 -1.1 23
2019-05-12 13:00:00 22 10 Nordeste 26 Este 0 947.1 -0.4 27
2019-05-12 12:00:00 19.2 11 Este 28 Nordeste 0 947.6 0.2 30
2019-05-12 11:00:00 16.2 9 Nordeste 29 Este 0 947.5 0.1 36
2019-05-12 10:00:00 13.1 14 Este 29 Este 0 947.5 0.5 42
2019-05-12 09:00:00 11.1 9 Nordeste 28 Nordeste 0 947.4 0.1 48
2019-05-12 08:00:00 10.1 12 Nordeste 31 Nordeste 0 947.4 0.5 48
2019-05-12 07:00:00 10.3 13 Nordeste 32 Nordeste 0 947 0.6 47
2019-05-12 06:00:00 10.9 12 Nordeste 27 Nordeste 0 947.3 0.6 48
2019-05-12 05:00:00 11.6 10 Nordeste 38 Este 0 946.9 0.6 46
2019-05-12 04:00:00 12.4 14 Nordeste 33 Nordeste 0 946.4 0.2 45
2019-05-12 03:00:00 13.6 15 Nordeste 42 Nordeste 0 946.7 0.7 42
2019-05-12 02:00:00 14.7 18 Nordeste 46 Nordeste 0 946.3 0.8 41
2019-05-12 01:00:00 16.2 19 Nordeste 44 Nordeste 0 946.2 1.7 38
2019-05-12 00:00:00 17.5 18 Nordeste 43 Nordeste 0 946 2.4 32
2019-05-11 23:00:00 19.6 17 Nordeste 34 Nordeste 0 945.5 2.6 26
2019-05-11 22:00:00 20.7 16 Nordeste 36 Nordeste 0 944.5 1.2 25
2019-05-11 21:00:00 22.4 15 Nordeste 31 Nordeste 0 943.6 0.8 28
2019-05-11 20:00:00 23.8 15 Nordeste 38 Nordeste 0 942.9 0.1 27
2019-05-11 19:00:00 25.4 9 Nordeste 29 Nordeste 0 943.3 0.4 27
2019-05-11 18:00:00 26.4 9 Nordeste 19 Este 0 942.8 -0.5 27
2019-05-11 17:00:00 27 4 Norte 16 Norte 0 942.8 0 25
2019-05-11 16:00:00 25.7 6 Norte 17 Noroeste 0 942.9 -0.7 26
2019-05-11 15:00:00 26.4 3 Oeste 21 Noroeste 0 943.3 -0.1 30
2019-05-11 14:00:00 25.1 5 Sudeste 18 Sudeste 0 942.8 -0.1 33
2019-05-11 13:00:00 23.2 4 Norte 17 Norte 0 943.6 1.2 34
2019-05-11 12:00:00 21.6 0 Calma 17 Sudeste 0 943.4 1.3 39
2019-05-11 11:00:00 19.6 8 Este 18 Este 0 942.9 1.2 46
2019-05-11 10:00:00 17.3 5 Este 14 Este 0 942.4 1.7 55
2019-05-11 09:00:00 14.9 5 Este 10 Este 0 942.1 1.8 69
2019-05-11 08:00:00 12.9 0 Calma 5 Sudeste 0 941.7 1.4 74
2019-05-11 07:00:00 13.2 0 Calma 7 Este 0 940.7 0.7 70
2019-05-11 06:00:00 14.3 0 Calma 11 Este 0 940.3 0.2 62
2019-05-11 05:00:00 14.5 4 Oeste 14 Noroeste 0 940.3 0 59
2019-05-11 04:00:00 15.3 4 Noroeste 14 Oeste 0 940 -0.2 56
2019-05-11 03:00:00 16.9 8 Noroeste 27 Noroeste 0 940.1 0.2 53
2019-05-11 02:00:00 16.2 6 Noroeste 14 Oeste 0 940.3 1 64
2019-05-11 01:00:00 17.2 8 Oeste 22 Oeste 0 940.2 1.7 61
2019-05-11 00:00:00 18.1 9 Noroeste 27 Oeste 0 939.9 1.4 57
2019-05-10 23:00:00 18.9 12 Oeste 28 Oeste 0 939.3 1.6 55
2019-05-10 22:00:00 19.8 12 Oeste 31 Oeste 0 938.5 0.9 52
2019-05-10 21:00:00 21.3 15 Oeste 31 Oeste 0 938.5 1.1 49
2019-05-10 20:00:00 22.6 10 Oeste 31 Oeste 0 937.7 0.2 46
2019-05-10 19:00:00 23.4 14 Oeste 33 Oeste 0 937.6 -0.1 46
2019-05-10 18:00:00 24.3 15 Oeste 34 Oeste 0 937.4 -0.6 44
2019-05-10 17:00:00 24.5 14 Oeste 35 Sudoeste 0 937.5 -0.7 44
2019-05-10 16:00:00 24.3 11 Sudoeste 32 Sudoeste 0 937.7 0.1 45
2019-05-10 15:00:00 23.7 9 Sudoeste 31 Sudoeste 0 938 -0.5 46
2019-05-10 14:00:00 23.5 13 Sudoeste 31 Oeste 0 938.2 -0.1 49
2019-05-10 13:00:00 21.4 11 Sudoeste 28 Sudoeste 0 937.6 -0.5 55
2019-05-10 12:00:00 19.8 9 Sudoeste 22 Sudoeste 0 938.5 0.8 62
2019-05-10 11:00:00 17.8 7 Sudoeste 18 Oeste 0 938.3 1 69
2019-05-10 10:00:00 16 8 Sudoeste 27 Sudoeste 0 938.1 1.1 78
2019-05-10 09:00:00 15.1 7 Sudoeste 23 Sudoeste 0 937.7 1 81
2019-05-10 08:00:00 14.9 11 Oeste 27 Oeste 0 937.3 0.7 82
2019-05-10 07:00:00 14.9 8 Oeste 30 Oeste 0 937 0.5 86
2019-05-10 06:00:00 14.9 13 Oeste 30 Oeste 0 936.7 0 85
2019-05-10 05:00:00 15 14 Oeste 34 Oeste 0 936.6 -0.2 86
2019-05-10 04:00:00 15.2 13 Oeste 36 Oeste 0 936.5 -0.6 87
2019-05-10 03:00:00 15.9 13 Oeste 31 Oeste 0 936.7 -0.2 85
2019-05-10 02:00:00 15.9 12 Oeste 27 Oeste 0 936.8 0.2 83
2019-05-10 01:00:00 16 11 Sudoeste 29 Oeste 0 937.1 1.1 82
2019-05-10 00:00:00 16.7 7 Sudoeste 41 Oeste 0 936.9 2 82
2019-05-09 23:00:00 16.8 14 Oeste 40 Sudoeste 0 936.6 0.9 79
2019-05-09 22:00:00 17.5 18 Sudoeste 42 Sudoeste 0 936 0.4 74
2019-05-09 21:00:00 18.5 14 Sudoeste 42 Sudoeste 0 934.9 -0.6 66
2019-05-09 20:00:00 19.6 19 Oeste 47 Oeste 0 935.7 0 60
2019-05-09 19:00:00 19.9 15 Sudoeste 40 Sudoeste 0 935.6 -0.4 56
2019-05-09 18:00:00 20.3 18 Sudoeste 42 Sudoeste 0 935.5 -1 53
2019-05-09 17:00:00 21 17 Oeste 42 Sudoeste 0 935.7 -0.8 50
2019-05-09 16:00:00 21.8 18 Sudoeste 40 Sudoeste 0 936 -1.3 44
2019-05-09 15:00:00 21.7 12 Sudoeste 30 Sudoeste 0 936.5 -0.9 41
2019-05-09 14:00:00 20.6 11 Sudoeste 29 Sudoeste 0 936.5 -0.6 41
2019-05-09 13:00:00 19.2 9 Sudoeste 26 Oeste 0 937.3 -0.1 43
2019-05-09 12:00:00 17.4 7 Oeste 19 Oeste 0 937.4 0.4 43
2019-05-09 11:00:00 15 8 Oeste 16 Oeste 0 937.1 0.6 51
2019-05-09 10:00:00 12.5 5 Oeste 14 Oeste 0 937.4 1.5 60
2019-05-09 09:00:00 11.2 4 Oeste 14 Oeste 0 937 1.5 66
2019-05-09 08:00:00 9.8 5 Oeste 12 Oeste 0 936.5 0.6 69
2019-05-09 07:00:00 10 6 Oeste 15 Noroeste 0 935.9 -0.2 70
2019-05-09 06:00:00 10.3 5 Oeste 18 Oeste 0 935.5 -0.5 70
2019-05-09 05:00:00 11 5 Oeste 17 Oeste 0 935.9 -0.3 71
2019-05-09 04:00:00 11.6 9 Oeste 21 Oeste 0 936.1 0 79
2019-05-09 03:00:00 12.3 7 Oeste 19 Oeste 0 936 0.2 81
2019-05-09 02:00:00 13.2 8 Oeste 26 Sudoeste 0 936.2 0.7 79
2019-05-09 01:00:00 14.1 14 Oeste 33 Oeste 0 936.1 1.2 73
2019-05-09 00:00:00 15.1 14 Oeste 34 Sudoeste 0 935.8 1.4 64
2019-05-08 23:00:00 15.8 14 Oeste 38 Oeste 0 935.5 1.9 65
2019-05-08 22:00:00 16.3 18 Sudoeste 41 Sudoeste 0 934.9 1.8 65
2019-05-08 21:00:00 17 14 Sudoeste 45 Sudoeste 0 934.4 0.1 63
2019-05-08 20:00:00 17.4 18 Oeste 50 Oeste 0 933.6 0.1 61
2019-05-08 19:00:00 17.9 17 Oeste 51 Sudoeste 0 933.1 -1.9 59
2019-05-08 18:00:00 19.2 18 Sudoeste 56 Sudoeste 0 934.3 -0.7 58
2019-05-08 17:00:00 18.9 27 Sudoeste 62 Sudoeste 0 933.5 -1.5 59
2019-05-08 16:00:00 18 14 Sudoeste 50 Sudoeste 0 935 -0.3 68
2019-05-08 15:00:00 17.2 20 Sudoeste 58 Sudoeste 0 935 -0.5 69
2019-05-08 14:00:00 16.6 22 Sudoeste 48 Oeste 0 935 -0.4 72
2019-05-08 13:00:00 15.4 20 Sudoeste 49 Sudoeste 0 935.3 0.1 74
2019-05-08 12:00:00 15.2 19 Sudoeste 43 Oeste 0 935.5 0.3 74
2019-05-08 11:00:00 14.8 22 Sudoeste 51 Oeste 0 935.4 0.4 73
2019-05-08 10:00:00 14.5 21 Sudoeste 47 Sudoeste 0 935.2 0.4 74
2019-05-08 09:00:00 14.6 18 Sudoeste 41 Sudoeste 0 935.2 -0.1 76
2019-05-08 08:00:00 14.4 18 Sudoeste 44 Sudoeste 0 935 -0.5 79
2019-05-08 07:00:00 14.5 13 Sudoeste 38 Sudoeste 0 934.8 -0.9 79
2019-05-08 06:00:00 14.7 12 Sudoeste 32 Sudoeste 0 935.3 -1.1 79
2019-05-08 05:00:00 15 12 Oeste 34 Oeste 0 935.5 -1.1 75
2019-05-08 04:00:00 15.3 14 Sudoeste 33 Oeste 0 935.7 -1.3 73
2019-05-08 03:00:00 15.8 12 Oeste 30 Oeste 0 936.4 -1 73
2019-05-08 02:00:00 16 10 Oeste 37 Oeste 0 936.6 -0.7 72
2019-05-08 01:00:00 16.8 17 Oeste 40 Oeste 0 937 -0.2 68
2019-05-08 00:00:00 16.9 14 Oeste 43 Sudoeste 0 937.4 0.5 64
2019-05-07 23:00:00 17.6 16 Oeste 36 Sudoeste 0 937.3 0.3 60
2019-05-07 22:00:00 18.3 13 Oeste 31 Sudoeste 0 937.2 -0.2 57
2019-05-07 21:00:00 19 13 Sudoeste 35 Oeste 0 936.9 -0.4 53
2019-05-07 20:00:00 20.1 13 Oeste 42 Oeste 0 937 -0.5 50
2019-05-07 19:00:00 21.3 20 Oeste 51 Oeste 0 937.4 -1.4 47
2019-05-07 18:00:00 22.8 19 Oeste 43 Sudoeste 0 937.3 -1.8 43
2019-05-07 17:00:00 22.6 18 Oeste 43 Oeste 0 937.5 -0.7 44
2019-05-07 16:00:00 21.6 18 Oeste 42 Sudoeste 0 938.8 -0.9 46
2019-05-07 15:00:00 22 14 Sudoeste 41 Sudoeste 0 939.1 -0.5 44
2019-05-07 14:00:00 21.5 9 Sudoeste 30 Oeste 0 938.2 -1.6 46
2019-05-07 13:00:00 20.5 9 Sudoeste 25 Sudoeste 0 939.7 0.3 48
2019-05-07 12:00:00 19.1 8 Sudoeste 21 Sudoeste 0 939.6 0.3 57
2019-05-07 11:00:00 16.9 6 Sudoeste 19 Oeste 0 939.8 0.8 62
2019-05-07 10:00:00 14.7 3 Sur 13 Sudoeste 0 939.4 0.7 69
2019-05-07 09:00:00 12.8 5 Sudoeste 12 Sudoeste 0 939.3 0.2 74
2019-05-07 08:00:00 12.2 3 Sudoeste 10 Sudoeste 0 939 0 76
2019-05-07 07:00:00 12.4 6 Sudoeste 13 Sudoeste 0 938.7 -0.3 73
2019-05-07 06:00:00 12.8 6 Sudoeste 15 Sudoeste 0 939.1 -0.2 72
2019-05-07 05:00:00 13.3 4 Sudoeste 15 Sudoeste 0 939 -0.5 69
2019-05-07 04:00:00 13.8 5 Oeste 12 Oeste 0 939 0 65
2019-05-07 03:00:00 15 5 Oeste 21 Oeste 0 939.3 -0.1 59
2019-05-07 02:00:00 15.5 8 Oeste 22 Oeste 0 939.5 0.3 56
2019-05-07 01:00:00 16.1 5 Oeste 21 Oeste 0 939 -0.1 49
2019-05-07 00:00:00 16.9 7 Oeste 19 Noroeste 0 939.4 1.1 45
2019-05-06 23:00:00 18.1 7 Oeste 22 Oeste 0 939.2 0.8 40
2019-05-06 22:00:00 19.2 7 Oeste 21 Oeste 0 939.1 0.8 36
2019-05-06 21:00:00 20.7 8 Oeste 30 Oeste 0 938.3 -0.1 34
2019-05-06 20:00:00 22.4 12 Oeste 32 Oeste 0 938.4 -0.4 30
2019-05-06 19:00:00 23.6 12 Oeste 32 Sudoeste 0 938.3 -0.9 32
2019-05-06 18:00:00 24 13 Sudoeste 33 Oeste 0 938.4 -1.3 33
2019-05-06 17:00:00 24 9 Sudoeste 25 Sudoeste 0 938.8 -0.9 34
2019-05-06 16:00:00 24.4 5 Sudoeste 23 Sudoeste 0 939.2 -1.2 34
2019-05-06 15:00:00 23.5 10 Sudoeste 27 Sudoeste 0 939.7 -1 34
2019-05-06 14:00:00 22.1 10 Sudoeste 25 Sudoeste 0 939.7 -1 35
2019-05-06 13:00:00 21.4 5 Sudoeste 17 Sur 0 940.4 -0.2 34
2019-05-06 12:00:00 18.8 2 Sudoeste 12 Sudoeste 0 940.7 0.3 34
2019-05-06 11:00:00 17.1 3 Sudeste 15 Sudeste 0 940.7 0.7 35
2019-05-06 10:00:00 14.1 3 Sudeste 9 Este 0 940.6 1.1 41
2019-05-06 09:00:00 10.6 0 Calma 6 Este 0 940.4 1.1 50
2019-05-06 08:00:00 8.6 0 Calma 8 Nordeste 0 940 0.6 56
2019-05-06 07:00:00 9.2 2 Nordeste 9 Nordeste 0 939.5 0.6 48
2019-05-06 06:00:00 9.3 2 Este 8 Este 0 939.3 0.5 49
2019-05-06 05:00:00 10.5 3 Sudeste 14 Este 0 939.4 0.5 42
2019-05-06 04:00:00 11.6 5 Este 15 Este 0 938.9 0.1 40
2019-05-06 03:00:00 13.3 12 Nordeste 20 Nordeste 0 938.8 0.1 36
2019-05-06 02:00:00 14.3 7 Nordeste 18 Nordeste 0 938.9 0.2 36
2019-05-06 01:00:00 14.8 6 Este 18 Nordeste 0 938.8 0.6 36
2019-05-06 00:00:00 15.7 6 Nordeste 13 Nordeste 0 938.7 2.1 34
2019-05-05 23:00:00 16.7 3 Nordeste 14 Noroeste 0 938.7 1.1 34
2019-05-05 22:00:00 17.5 6 Noroeste 14 Oeste 0 938.2 0.7 33
2019-05-05 21:00:00 19.4 6 Noroeste 23 Noroeste 0 936.6 -0.8 32
2019-05-05 20:00:00 21.1 10 Noroeste 24 Norte 0 937.6 -0.4 32
2019-05-05 19:00:00 22.1 9 Noroeste 19 Noroeste 0 937.5 -0.9 32
2019-05-05 18:00:00 22.3 3 Sudoeste 23 Sur 0 937.4 -1.6 37
2019-05-05 17:00:00 22.1 3 Sur 16 Sudoeste 0 938 -1.2 37
2019-05-05 16:00:00 20.9 5 Sur 14 Nordeste 0 938.4 -1.2 38
2019-05-05 15:00:00 20.6 3 Este 17 Este 0 939 -0.5 40
2019-05-05 14:00:00 18.8 3 Norte 17 Nordeste 0 939.2 0.1 43
2019-05-05 13:00:00 17.5 3 Nordeste 16 Este 0 939.6 0.8 45
2019-05-05 12:00:00 14.8 5 Nordeste 19 Este 0 939.5 0.8 48
2019-05-05 11:00:00 12.8 6 Nordeste 26 Nordeste 0 939.1 1 52
2019-05-05 10:00:00 10.4 9 Este 26 Este 0 938.8 1.3 55
2019-05-05 09:00:00 9.3 9 Nordeste 23 Nordeste 0 938.7 1.6 57
2019-05-05 08:00:00 8.2 9 Nordeste 22 Nordeste 0 938.1 1 58
2019-05-05 07:00:00 8.6 12 Nordeste 26 Nordeste 0 937.5 0.4 59
2019-05-05 06:00:00 9.2 10 Nordeste 32 Nordeste 0 937.1 0.3 61
2019-05-05 05:00:00 10.1 14 Nordeste 29 Nordeste 0 937.1 0.1 59
2019-05-05 04:00:00 10.8 13 Nordeste 33 Este 0 937.1 0.6 56
2019-05-05 03:00:00 11.9 12 Nordeste 35 Este 0 936.8 0.5 53
2019-05-05 02:00:00 13.7 13 Este 29 Este 0 937 0.6 45
2019-05-05 01:00:00 15.8 9 Nordeste 19 Nordeste 0 936.5 1.2 40
2019-05-05 00:00:00 15.6 8 Norte 17 Nordeste 0 936.3 0.7 39
2019-05-04 23:00:00 17.3 6 Norte 23 Norte 0 936.4 1.8 37
2019-05-04 22:00:00 18.3 10 Nordeste 21 Nordeste 0 935.3 0.3 36
2019-05-04 21:00:00 19.4 7 Nordeste 19 Nordeste 0 935.6 0.5 34
2019-05-04 20:00:00 20.8 7 Este 16 Sudeste 0 934.6 -0.6 34
2019-05-04 19:00:00 21.8 3 Norte 17 Oeste 0 935 -0.7 33
2019-05-04 18:00:00 21.9 0 Calma 18 Noroeste 0 935.1 -1.1 34
2019-05-04 17:00:00 21.7 6 Sudoeste 18 Sur 0 935.2 -1 35
2019-05-04 16:00:00 21.5 9 Sudeste 18 Sudoeste 0 935.7 -0.8 36
2019-05-04 15:00:00 20.5 5 Sudoeste 18 Sudoeste 0 936.2 -0.6 37
2019-05-04 14:00:00 17.7 3 Sur 14 Sudoeste 0 936.2 -0.6 38
2019-05-04 13:00:00 17.1 5 Sudoeste 15 Sudoeste 0 936.5 -0.2 43
2019-05-04 12:00:00 14.9 2 Sudoeste 14 Oeste 0 936.8 -0.1 47
2019-05-04 11:00:00 12.3 3 Este 9 Sur 0 936.8 0.1 53
2019-05-04 10:00:00 10.2 4 Nordeste 12 Este 0 936.7 0.4 58
2019-05-04 09:00:00 8.5 4 Este 9 Nordeste 0 936.9 0.8 62
2019-05-04 08:00:00 7.2 2 Este 13 Nordeste 0 936.7 0.7 65
2019-05-04 07:00:00 7.2 4 Nordeste 10 Nordeste 0 936.3 0.6 64
2019-05-04 06:00:00 7.3 2 Nordeste 12 Nordeste 0 936.1 -0.1 62
2019-05-04 05:00:00 8.1 5 Este 17 Nordeste 0 936 -0.1 60
2019-05-04 04:00:00 8.5 7 Nordeste 20 Nordeste 0 935.7 -0.6 58
2019-05-04 03:00:00 9.5 8 Nordeste 39 Nordeste 0 936.2 0.4 56
2019-05-04 02:00:00 10.2 15 Nordeste 31 Nordeste 0 936.1 0.3 52
2019-05-04 01:00:00 11.1 12 Este 35 Este 0 936.3 1.5 51
2019-05-04 00:00:00 12.6 12 Este 37 Este 0 935.8 1.8 48
2019-05-03 23:00:00 14.1 12 Nordeste 35 Norte 0 935.8 3.3 44
2019-05-03 22:00:00 15.2 13 Nordeste 29 Nordeste 0 934.8 1.5 42
2019-05-03 21:00:00 16.3 8 Nordeste 22 Este 0 934 0.9 41
2019-05-03 20:00:00 17.4 8 Nordeste 28 Este 0 932.5 -0.6 41
2019-05-03 19:00:00 17.8 8 Nordeste 33 Nordeste 0 933.3 0.2 41
2019-05-03 18:00:00 18.6 14 Nordeste 34 Este 0 933.1 -0.1 40
2019-05-03 17:00:00 18.3 14 Nordeste 37 Este 0 933.1 -0.1 42
2019-05-03 16:00:00 18.6 15 Este 42 Este 0 933.1 -0.1 43
2019-05-03 15:00:00 18.6 14 Nordeste 44 Nordeste 0 933.2 -0.3 44
2019-05-03 14:00:00 18.5 18 Nordeste 38 Este 0 933.2 0.3 38
2019-05-03 13:00:00 20.2 8 Nordeste 24 Nordeste 0 933.2 0.3 43
2019-05-03 12:00:00 18.5 7 Nordeste 18 Este 0 933.5 0.3 52
2019-05-03 11:00:00 17 7 Este 17 Este 0 932.9 -0.3 56
2019-05-03 10:00:00 14.7 3 Este 12 Nordeste 0 932.9 -0.4 62
2019-05-03 09:00:00 13.3 4 Este 10 Este 0 933.2 -0.6 67
2019-05-03 08:00:00 12.5 4 Este 13 Nordeste 0 933.2 -1 67
2019-05-03 07:00:00 12.5 6 Nordeste 10 Nordeste 0 933.3 -1.4 67
2019-05-03 06:00:00 12.9 3 Nordeste 10 Nordeste 0 933.8 -1.1 67
2019-05-03 05:00:00 14.1 5 Este 14 Este 0 934.2 -1.1 64
2019-05-03 04:00:00 14.8 7 Este 15 Este 0 934.7 -0.6 62
2019-05-03 03:00:00 15.7 7 Este 19 Este 0 934.9 0.4 63
2019-05-03 02:00:00 16.7 8 Este 16 Este 0 935.3 0.4 61
2019-05-03 01:00:00 17.2 6 Este 18 Este 0 935.3 1.2 60
2019-05-03 00:00:00 17.6 6 Este 15 Este 0 934.5 0.9 55
2019-05-02 23:00:00 18.7 5 Este 26 Sudeste 0 934.9 1.3 50
2019-05-02 22:00:00 21 6 Nordeste 14 Nordeste 0 934.1 0.5 43
2019-05-02 21:00:00 21.7 6 Nordeste 15 Nordeste 0 933.6 -0.2 41
2019-05-02 20:00:00 22.9 5 Nordeste 13 Norte 0 933.6 -0.5 41
2019-05-02 19:00:00 22.9 4 Nordeste 15 Nordeste 0 933.6 -1.3 40
2019-05-02 18:00:00 23.5 2 Este 12 Este 0 933.8 -1.6 41
2019-05-02 17:00:00 23.4 0 Calma 12 Sur 0 934.1 -2 41
2019-05-02 16:00:00 24.5 7 Sudeste 14 Sudeste 0 934.9 -1.7 41
2019-05-02 15:00:00 23.8 3 Sudoeste 18 Sudeste 0 935.4 -1 44
2019-05-02 14:00:00 23.1 3 Este 16 Este 0 936.1 -0.8 47
2019-05-02 13:00:00 21.7 0 Calma 16 Sudeste 0 936.6 0 50
2019-05-02 12:00:00 19.9 6 Sudeste 17 Sudeste 0 936.4 0.2 53
2019-05-02 11:00:00 18.1 5 Sudeste 14 Este 0 936.9 1.2 58
2019-05-02 10:00:00 15.9 7 Este 17 Este 0 936.6 1.3 63
2019-05-02 09:00:00 14 5 Este 18 Norte 0 936.2 1 65
2019-05-02 08:00:00 13.3 9 Este 18 Este 0 935.7 0.1 65
2019-05-02 07:00:00 13.2 9 Nordeste 16 Nordeste 0 935.3 -0.3 63
2019-05-02 06:00:00 13.6 6 Nordeste 18 Nordeste 0 935.2 -0.5 61
2019-05-02 05:00:00 14.4 8 Nordeste 17 Nordeste 0 935.6 -0.2 59
2019-05-02 04:00:00 15.1 6 Este 13 Este 0 935.6 0.2 58
2019-05-02 03:00:00 15.9 6 Este 16 Este 0 935.7 1.8 55
2019-05-02 02:00:00 16.3 6 Este 17 Este 0 935.8 0.7 52
2019-05-02 01:00:00 17.3 11 Este 39 Este 0 935.4 0.8 49
2019-05-02 00:00:00 18.3 15 Nordeste 35 Nordeste 0 933.9 -0.3 45
2019-05-01 23:00:00 18.9 6 Nordeste 18 Noroeste 0 935.1 1.8 42
2019-05-01 22:00:00 19.3 12 Noroeste 31 Oeste 0 934.6 0.9 41
2019-05-01 21:00:00 19.6 9 Oeste 26 Noroeste 0 934.2 0.4 41
2019-05-01 20:00:00 21 12 Noroeste 27 Oeste 0 933.3 -0.7 37
2019-05-01 19:00:00 22 8 Noroeste 36 Noroeste 0 933.7 -1 38
2019-05-01 18:00:00 23 13 Noroeste 24 Noroeste 0 933.8 -1.2 38
2019-05-01 17:00:00 24.3 9 Oeste 22 Sudoeste 0 934 -1.6 37
2019-05-01 16:00:00 25 4 Sudoeste 15 Sudoeste 0 934.7 -1.5 36
2019-05-01 15:00:00 24.9 4 Sur 12 Este 0 935 -0.9 36
2019-05-01 14:00:00 22.3 2 Sudeste 13 Sudeste 0 935.6 -0.9 41
2019-05-01 13:00:00 21.6 2 Sudeste 12 Nordeste 0 936.2 -0.1 42
2019-05-01 12:00:00 20.7 3 Este 11 Sudeste 0 935.9 -0.3 46
2019-05-01 11:00:00 17.7 3 Sudeste 10 Este 0 936.5 0.7 49
2019-05-01 10:00:00 15.1 3 Este 14 Nordeste 0 936.3 0.6 49
2019-05-01 09:00:00 13.6 4 Este 18 Nordeste 0 936.2 0.8 48
2019-05-01 08:00:00 13.3 9 Nordeste 18 Nordeste 0 935.8 0.3 46
2019-05-01 07:00:00 13.2 7 Nordeste 16 Nordeste 0 935.7 -0.1 45
2019-05-01 06:00:00 14 11 Nordeste 18 Nordeste 0 935.4 -0.7 43
2019-05-01 05:00:00 14.8 7 Nordeste 14 Nordeste 0 935.5 -0.8 42
2019-05-01 04:00:00 15.4 6 Nordeste 18 Nordeste 0 935.8 -0.4 42
2019-05-01 03:00:00 16.4 7 Nordeste 21 Nordeste 0 936.1 0.2 39
2019-05-01 02:00:00 17.3 12 Nordeste 24 Nordeste 0 936.3 -0.8 38
2019-05-01 01:00:00 18.7 11 Nordeste 21 Nordeste 0 936.2 -0.3 37
2019-05-01 00:00:00 19.4 10 Nordeste 28 Nordeste 0 935.9 -0.2 37
2019-04-30 23:00:00 20.8 13 Nordeste 28 Nordeste 0 937.1 1.2 36
2019-04-30 22:00:00 21.6 10 Nordeste 31 Nordeste 0 936.5 0.5 37
2019-04-30 21:00:00 22 6 Norte 17 Sudoeste 0 936.1 -0.3 41
2019-04-30 20:00:00 23.7 7 Oeste 25 Oeste 0 935.9 -1 38
2019-04-30 19:00:00 24.5 4 Sudoeste 20 Sudoeste 0 936 -1.5 37
2019-04-30 18:00:00 25.3 3 Oeste 22 Oeste 0 936.4 -1.5 36
2019-04-30 17:00:00 25.7 7 Oeste 21 Sudoeste 0 936.9 -1.6 36
2019-04-30 16:00:00 25.9 4 Sudoeste 18 Sur 0 937.5 -1.7 35
2019-04-30 15:00:00 25.6 5 Oeste 16 Sur 0 937.9 -1.3 36
2019-04-30 14:00:00 24.6 6 Sudeste 15 Sudeste 0 938.5 -1 37
2019-04-30 13:00:00 23.5 5 Sudeste 12 Este 0 939.2 -0.2 39
2019-04-30 12:00:00 21.5 4 Este 11 Este 0 939.2 0 44
2019-04-30 11:00:00 18.5 3 Nordeste 14 Este 0 939.5 0.8 48
2019-04-30 10:00:00 15.9 7 Nordeste 14 Nordeste 0 939.4 1.1 52
2019-04-30 09:00:00 14.1 7 Nordeste 15 Nordeste 0 939.2 0.7 58
2019-04-30 08:00:00 13.4 4 Nordeste 15 Nordeste 0 938.7 0.4 59
2019-04-30 07:00:00 13.6 5 Nordeste 15 Nordeste 0 938.3 0.2 58
2019-04-30 06:00:00 14.1 7 Nordeste 14 Nordeste 0 938.5 0 58
2019-04-30 05:00:00 14.8 7 Nordeste 13 Nordeste 0 938.3 -0.4 53
2019-04-30 04:00:00 16.2 7 Nordeste 19 Nordeste 0 938.1 -0.4 48
2019-04-30 03:00:00 16.8 9 Nordeste 24 Nordeste 0 938.5 -0.1 47
2019-04-30 02:00:00 17.9 10 Nordeste 26 Nordeste 0 938.7 0.1 45
2019-04-30 01:00:00 18.6 10 Nordeste 23 Nordeste 0 938.5 0.7 43
2019-04-30 00:00:00 18.9 6 Nordeste 13 Nordeste 0 938.6 0.8 44
2019-04-29 23:00:00 18.6 3 Noroeste 9 Oeste 0 938.6 0.9 48
2019-04-29 22:00:00 19.7 4 Noroeste 14 Oeste 0 937.8 0.1 42
2019-04-29 21:00:00 21 4 Sur 15 Sur 0 937.8 -0.1 37
2019-04-29 20:00:00 23.2 5 Sudeste 13 Sur 0 937.7 -0.4 33
2019-04-29 19:00:00 24 3 Sur 14 Este 0 937.7 -1 32
2019-04-29 18:00:00 24.7 3 Sur 22 Sudeste 0 937.9 -1.3 31
2019-04-29 17:00:00 24.9 5 Sudeste 21 Este 0 938.1 -1.7 31
2019-04-29 16:00:00 25.4 5 Sudeste 16 Sudeste 0 938.7 -1.6 31
2019-04-29 15:00:00 24.8 7 Sur 20 Sur 0 939.2 -1.4 33
2019-04-29 14:00:00 23.8 6 Sudeste 14 Sudeste 0 939.8 -0.8 36
2019-04-29 13:00:00 22.6 6 Este 17 Sudeste 0 940.3 -0.5 40
2019-04-29 12:00:00 20 4 Este 15 Sudeste 0 940.6 -0.5 44
2019-04-29 11:00:00 17.4 6 Este 17 Nordeste 0 940.6 -0.2 47
2019-04-29 10:00:00 14.9 9 Nordeste 23 Nordeste 0 940.8 0.3 49
2019-04-29 09:00:00 13.5 14 Nordeste 27 Nordeste 0 941.1 0.8 50
2019-04-29 08:00:00 12.9 12 Nordeste 23 Nordeste 0 940.8 0.1 52
2019-04-29 07:00:00 13.1 10 Nordeste 26 Nordeste 0 940.5 -0.2 51
2019-04-29 06:00:00 13.5 12 Nordeste 24 Nordeste 0 940.3 -0.6 50
2019-04-29 05:00:00 14.4 10 Nordeste 27 Norte 0 940.7 -0.6 47
2019-04-29 04:00:00 14.8 9 Nordeste 23 Nordeste 0 940.7 -0.7 46
2019-04-29 03:00:00 15.5 12 Nordeste 27 Nordeste 0 940.9 -0.2 44
2019-04-29 02:00:00 16.7 13 Nordeste 27 Nordeste 0 941.3 0 41
2019-04-29 01:00:00 17.6 11 Nordeste 23 Nordeste 0 941.4 0.1 39
2019-04-29 00:00:00 17 6 Nordeste 14 Nordeste 0 941.1 0 44
2019-04-28 23:00:00 16.8 0 Calma 4 Sudeste 0 941.3 1 44
2019-04-28 22:00:00 18.4 3 Sudeste 8 Oeste 0 941.3 0.2 40
2019-04-28 21:00:00 19.8 0 Calma 11 Nordeste 0 941.1 -0.4 38
2019-04-28 20:00:00 22.4 4 Nordeste 16 Este 0 940.3 -1.3 32
2019-04-28 19:00:00 23.1 0 Calma 12 Sudeste 0 941.1 -1.7 30
2019-04-28 18:00:00 23.3 4 Nordeste 17 Este 0 941.5 -1.9 30
2019-04-28 17:00:00 23.8 3 Este 16 Este 0 941.6 -2.4 33
2019-04-28 16:00:00 22.8 6 Norte 17 Nordeste 0 942.8 -1.8 32
2019-04-28 15:00:00 23.2 2 Sudoeste 18 Nordeste 0 943.4 -1.6 38
2019-04-28 14:00:00 21.7 2 Nordeste 17 Nordeste 0 944 -1.4 40
2019-04-28 13:00:00 21.2 6 Este 16 Sur 0 944.6 -0.9 43
2019-04-28 12:00:00 18.9 4 Nordeste 15 Nordeste 0 945 -0.5 49
2019-04-28 11:00:00 16.2 7 Nordeste 18 Nordeste 0 945.4 0.2 56
2019-04-28 10:00:00 13.5 10 Nordeste 23 Nordeste 0 945.5 0.9 63
2019-04-28 09:00:00 12 11 Nordeste 24 Nordeste 0 945.5 0.5 67
2019-04-28 08:00:00 11.3 8 Nordeste 26 Nordeste 0 945.2 -0.3 69
2019-04-28 07:00:00 11.5 12 Nordeste 24 Nordeste 0 944.6 -0.8 68
2019-04-28 06:00:00 12.1 10 Nordeste 27 Nordeste 0 945 -0.7 66
2019-04-28 05:00:00 12.5 12 Nordeste 23 Norte 0 945.5 -0.5 65
2019-04-28 04:00:00 13 9 Nordeste 22 Nordeste 0 945.4 -0.9 63
2019-04-28 03:00:00 13.5 9 Nordeste 30 Nordeste 0 945.7 -0.7 59
2019-04-28 02:00:00 14.6 11 Nordeste 26 Nordeste 0 946 -0.2 53
2019-04-28 01:00:00 15.4 12 Nordeste 21 Nordeste 0 946.3 0.3 50
2019-04-28 00:00:00 15.2 4 Este 15 Nordeste 0 946.4 0.7 48
2019-04-27 23:00:00 15 0 Calma 4 Sur 0 946.2 0.6 46
2019-04-27 22:00:00 16 2 Sudoeste 6 Sudoeste 0 946 0.2 43
2019-04-27 21:00:00 17.5 3 Sudoeste 8 Sur 0 945.7 -0.3 39
2019-04-27 20:00:00 19.4 0 Calma 12 Sur 0 945.6 -0.5 35
2019-04-27 19:00:00 20.2 5 Sur 13 Sudoeste 0 945.8 -1.1 33
2019-04-27 18:00:00 20.7 8 Sudeste 17 Sur 0 946 -1.5 33
2019-04-27 17:00:00 20.6 2 Sur 14 Sur 0 946.1 -2.2 33
2019-04-27 16:00:00 20 0 Calma 17 Sudeste 0 946.9 -1.7 34
2019-04-27 15:00:00 19.2 3 Sudeste 14 Este 0 947.5 -1.4 35
2019-04-27 14:00:00 18 3 Sudeste 21 Sudeste 0 948.3 -0.3 37
2019-04-27 13:00:00 17.3 2 Sudeste 12 Sudeste 0 948.6 0.2 39
2019-04-27 12:00:00 15.2 4 Sur 13 Este 0 948.9 0.6 43
2019-04-27 11:00:00 13.5 4 Sudeste 12 Este 0 948.6 0.9 47
2019-04-27 10:00:00 11.1 3 Este 11 Este 0 948.4 1.2 56
2019-04-27 09:00:00 8.5 4 Este 11 Este 0 948.3 1.3 66
2019-04-27 08:00:00 6.4 0 Calma 5 Sudeste 0 947.7 0.9 75
2019-04-27 07:00:00 6.9 3 Este 6 Este 0 947.2 0.3 73
2019-04-27 06:00:00 7.6 3 Este 8 Sudeste 0 947 -0.3 69
2019-04-27 05:00:00 8.2 2 Este 8 Nordeste 0 946.8 -0.9 65
2019-04-27 04:00:00 8.2 2 Nordeste 6 Nordeste 0 946.9 -0.6 65
2019-04-27 03:00:00 8.9 2 Este 6 Este 0 947.3 -0.1 61
2019-04-27 02:00:00 9.3 2 Sudeste 8 Sudeste 0 947.7 0.7 58
2019-04-27 01:00:00 10.1 4 Sudeste 8 Sudeste 0 947.5 1 53
2019-04-27 00:00:00 11 0 Calma 13 Noroeste 0 947.4 1.5 47